createdAt,value
2018-09-22T00:01:03.451Z,3.03
2018-09-22T00:03:37.743Z,3.03
2018-09-22T00:06:12.228Z,3.40
2018-09-22T00:08:46.703Z,3.60
2018-09-22T00:11:23.090Z,3.73
2018-09-22T00:13:57.555Z,3.63
2018-09-22T00:16:32.692Z,3.90
2018-09-22T00:19:07.255Z,3.40
2018-09-22T00:21:42.563Z,3.10
2018-09-22T00:24:17.195Z,2.80
2018-09-22T00:26:52.027Z,2.90
2018-09-22T00:29:26.447Z,2.87
2018-09-22T00:32:00.817Z,3.40
2018-09-22T00:34:35.377Z,2.90
2018-09-22T00:37:10.113Z,2.93
2018-09-22T00:39:44.516Z,2.80
2018-09-22T00:42:19.907Z,2.87
2018-09-22T00:44:54.327Z,3.10
2018-09-22T00:47:29.412Z,2.40
2018-09-22T00:50:03.815Z,2.53
2018-09-22T00:52:38.299Z,3.30
2018-09-22T00:55:12.592Z,2.63
2018-09-22T00:57:47.283Z,2.60
2018-09-22T01:00:21.931Z,2.77
2018-09-22T01:02:57.315Z,2.57
2018-09-22T01:05:32.212Z,2.70
2018-09-22T01:08:07.293Z,2.60
2018-09-22T01:10:42.027Z,3.10
2018-09-22T01:13:16.691Z,2.43
2018-09-22T01:15:51.384Z,2.77
2018-09-22T01:18:26.014Z,2.90
2018-09-22T01:21:00.828Z,2.97
2018-09-22T01:23:35.224Z,3.00
2018-09-22T01:26:09.686Z,2.80
2018-09-22T01:28:44.157Z,2.83
2018-09-22T01:31:20.751Z,3.00
2018-09-22T01:33:55.186Z,2.63
2018-09-22T01:36:29.746Z,2.60
2018-09-22T01:39:06.235Z,2.77
2018-09-22T01:41:41.552Z,3.00
2018-09-22T01:44:16.119Z,3.10
2018-09-22T01:46:50.519Z,2.80
2018-09-22T01:49:25.251Z,2.90
2018-09-22T01:51:59.802Z,2.67
2018-09-22T01:54:34.472Z,2.60
2018-09-22T01:57:08.987Z,2.90
2018-09-22T01:59:43.667Z,3.03
2018-09-22T02:02:18.516Z,2.80
2018-09-22T02:04:53.938Z,2.93
2018-09-22T02:07:28.588Z,2.40
2018-09-22T02:10:03.041Z,2.70
2018-09-22T02:12:38.086Z,2.67
2018-09-22T02:15:12.560Z,2.90
2018-09-22T02:17:47.216Z,2.63
2018-09-22T02:20:22.523Z,3.00
2018-09-22T02:22:57.304Z,2.50
2018-09-22T02:25:31.744Z,2.50
2018-09-22T02:28:06.420Z,2.73
2018-09-22T02:30:40.815Z,2.80
2018-09-22T02:33:15.296Z,2.73
2018-09-22T02:35:49.627Z,2.67
2018-09-22T02:38:24.528Z,2.70
2018-09-22T02:40:59.008Z,2.50
2018-09-22T02:43:33.664Z,3.00
2018-09-22T02:46:08.614Z,2.63
2018-09-22T02:48:43.073Z,2.90
2018-09-22T02:51:17.524Z,2.93
2018-09-22T02:53:51.979Z,2.73
2018-09-22T02:56:26.424Z,3.00
2018-09-22T02:59:00.827Z,2.97
2018-09-22T03:01:35.339Z,2.87
2018-09-22T03:04:10.188Z,2.40
2018-09-22T03:06:44.640Z,2.63
2018-09-22T03:09:19.668Z,2.73
2018-09-22T03:11:54.301Z,2.77
2018-09-22T03:14:28.747Z,2.50
2018-09-22T03:17:03.131Z,2.60
2018-09-22T03:19:38.291Z,2.73
2018-09-22T03:22:12.700Z,2.73
2018-09-22T03:24:47.011Z,2.57
2018-09-22T03:27:22.615Z,2.60
2018-09-22T03:29:57.527Z,2.70
2018-09-22T03:32:32.344Z,2.57
2018-09-22T03:35:07.056Z,2.87
2018-09-22T03:37:41.540Z,2.80
2018-09-22T03:40:15.921Z,2.87
2018-09-22T03:42:50.228Z,2.73
2018-09-22T03:45:25.055Z,2.90
2018-09-22T03:47:59.330Z,2.67
2018-09-22T03:50:33.954Z,3.00
2018-09-22T03:53:08.369Z,2.77
2018-09-22T03:55:42.803Z,2.83
2018-09-22T03:58:17.297Z,2.57
2018-09-22T04:00:51.944Z,2.63
2018-09-22T04:03:26.480Z,2.70
2018-09-22T04:06:01.065Z,2.60
2018-09-22T04:08:36.311Z,2.60
2018-09-22T04:11:11.013Z,2.77
2018-09-22T04:13:46.077Z,2.80
2018-09-22T04:16:21.095Z,2.57
2018-09-22T04:18:59.359Z,2.73
2018-09-22T04:21:34.334Z,2.83
2018-09-22T04:24:14.903Z,2.80
2018-09-22T04:26:51.671Z,2.70
2018-09-22T04:29:26.047Z,3.17
2018-09-22T04:32:00.644Z,2.77
2018-09-22T04:34:35.431Z,2.90
2018-09-22T04:37:10.320Z,3.07
2018-09-22T04:39:45.394Z,2.80
2018-09-22T04:42:19.897Z,2.90
2018-09-22T04:44:54.436Z,2.97
2018-09-22T04:47:29.345Z,2.73
2018-09-22T04:50:03.911Z,3.03
2018-09-22T04:52:38.712Z,3.00
2018-09-22T04:55:13.456Z,3.10
2018-09-22T04:57:47.967Z,2.73
2018-09-22T05:00:22.531Z,3.00
2018-09-22T05:02:57.067Z,3.00
2018-09-22T05:05:31.491Z,2.63
2018-09-22T05:08:06.679Z,2.90
2018-09-22T05:10:41.031Z,3.13
2018-09-22T05:13:15.560Z,3.13
2018-09-22T05:15:50.212Z,3.40
2018-09-22T05:18:24.521Z,3.13
2018-09-22T05:20:59.323Z,2.90
2018-09-22T05:23:33.788Z,2.90
2018-09-22T05:26:08.599Z,3.40
2018-09-22T05:28:42.844Z,3.60
2018-09-22T05:31:18.953Z,3.00
2018-09-22T05:33:53.379Z,3.00
2018-09-22T05:36:28.171Z,2.83
2018-09-22T05:39:03.129Z,3.13
2018-09-22T05:41:37.925Z,3.60
2018-09-22T05:44:12.567Z,2.87
2018-09-22T05:46:47.222Z,3.00
2018-09-22T05:49:22.174Z,3.00
2018-09-22T05:51:56.955Z,3.00
2018-09-22T05:54:31.588Z,3.20
2018-09-22T05:57:10.171Z,3.10
2018-09-22T05:59:44.715Z,2.93
2018-09-22T06:02:19.247Z,3.07
2018-09-22T06:04:53.816Z,2.90
2018-09-22T06:07:28.684Z,3.10
2018-09-22T06:10:03.628Z,2.60
2018-09-22T06:12:38.014Z,3.00
2018-09-22T06:15:12.356Z,2.80
2018-09-22T06:17:48.442Z,3.03
2018-09-22T06:20:23.319Z,3.07
2018-09-22T06:22:58.094Z,3.30
2018-09-22T06:25:36.089Z,3.50
2018-09-22T06:28:10.635Z,3.50
2018-09-22T06:30:44.976Z,2.80
2018-09-22T06:33:19.624Z,3.10
2018-09-22T06:36:01.355Z,2.90
2018-09-22T06:38:35.952Z,2.77
2018-09-22T06:41:11.144Z,2.50
2018-09-22T06:43:46.315Z,2.63
2018-09-22T06:46:20.971Z,2.93
2018-09-22T06:48:57.096Z,2.80
2018-09-22T06:51:31.412Z,2.87
2018-09-22T06:54:06.424Z,2.70
2018-09-22T06:56:40.767Z,3.03
2018-09-22T06:59:15.227Z,2.77
2018-09-22T07:01:49.595Z,2.67
2018-09-22T07:04:35.019Z,2.60
2018-09-22T07:07:09.960Z,2.90
2018-09-22T07:09:45.462Z,2.70
2018-09-22T07:12:19.984Z,2.53
2018-09-22T07:14:54.481Z,2.90
2018-09-22T07:17:28.764Z,2.97
2018-09-22T07:20:03.281Z,2.73
2018-09-22T07:22:43.231Z,2.50
2018-09-22T07:25:17.568Z,2.73
2018-09-22T07:27:52.449Z,2.70
2018-09-22T07:30:27.210Z,2.77
2018-09-22T07:33:01.779Z,2.70
2018-09-22T07:35:36.359Z,2.63
2018-09-22T07:38:11.112Z,2.70
2018-09-22T07:40:45.776Z,2.33
2018-09-22T07:43:27.452Z,2.70
2018-09-22T07:46:01.852Z,2.30
2018-09-22T07:48:36.816Z,2.50
2018-09-22T07:51:11.210Z,2.70
2018-09-22T07:53:45.660Z,2.50
2018-09-22T07:56:20.391Z,2.40
2018-09-22T07:58:58.051Z,2.40
2018-09-22T08:01:33.154Z,2.23
2018-09-22T08:04:08.671Z,2.80
2018-09-22T08:06:43.551Z,2.40
2018-09-22T08:09:17.959Z,2.50
2018-09-22T08:11:52.690Z,2.50
2018-09-22T08:14:29.044Z,2.13
2018-09-22T08:17:04.512Z,2.43
2018-09-22T08:19:49.769Z,2.50
2018-09-22T08:22:26.082Z,2.10
2018-09-22T08:25:01.962Z,2.10
2018-09-22T08:27:36.543Z,2.20
2018-09-22T08:30:11.328Z,2.20
2018-09-22T08:32:45.813Z,2.17
2018-09-22T08:35:20.358Z,2.30
2018-09-22T08:37:54.737Z,2.40
2018-09-22T08:40:29.052Z,2.17
2018-09-22T08:43:03.859Z,2.00
2018-09-22T08:45:38.540Z,2.40
2018-09-22T08:48:13.447Z,2.40
2018-09-22T08:50:48.137Z,2.30
2018-09-22T08:53:23.136Z,2.20
2018-09-22T08:56:02.029Z,2.57
2018-09-22T08:58:36.697Z,2.10
2018-09-22T09:01:11.463Z,2.10
2018-09-22T09:03:46.259Z,2.30
2018-09-22T09:06:20.657Z,1.97
2018-09-22T09:08:55.660Z,2.13
2018-09-22T09:11:30.251Z,2.63
2018-09-22T09:14:05.080Z,2.20
2018-09-22T09:16:39.884Z,2.30
2018-09-22T09:19:14.635Z,2.30
2018-09-22T09:21:48.907Z,2.13
2018-09-22T09:24:23.263Z,2.00
2018-09-22T09:26:58.214Z,2.10
2018-09-22T09:29:34.917Z,1.83
2018-09-22T09:32:10.737Z,2.13
2018-09-22T09:34:46.357Z,1.97
2018-09-22T09:37:20.948Z,2.00
2018-09-22T09:39:55.789Z,1.80
2018-09-22T09:42:31.161Z,1.90
2018-09-22T09:45:05.936Z,2.20
2018-09-22T09:47:40.593Z,2.03
2018-09-22T09:50:15.230Z,1.93
2018-09-22T09:52:50.657Z,1.90
2018-09-22T09:55:25.304Z,2.00
2018-09-22T09:57:59.587Z,2.20
2018-09-22T10:00:39.487Z,2.00
2018-09-22T10:03:15.047Z,2.23
2018-09-22T10:05:50.432Z,2.03
2018-09-22T10:08:24.820Z,2.10
2018-09-22T10:11:12.092Z,2.03
2018-09-22T10:13:50.387Z,1.90
2018-09-22T10:16:25.375Z,2.10
2018-09-22T10:19:00.016Z,1.83
2018-09-22T10:21:34.543Z,2.27
2018-09-22T10:24:09.436Z,2.10
2018-09-22T10:26:55.386Z,2.07
2018-09-22T10:29:29.864Z,1.87
2018-09-22T10:32:04.660Z,2.30
2018-09-22T10:34:39.287Z,2.40
2018-09-22T10:37:13.692Z,2.10
2018-09-22T10:39:48.496Z,2.10
2018-09-22T10:42:23.317Z,2.10
2018-09-22T10:44:57.912Z,2.10
2018-09-22T10:47:32.377Z,1.80
2018-09-22T10:50:07.239Z,2.03
2018-09-22T10:52:41.954Z,2.50
2018-09-22T10:55:16.680Z,1.97
2018-09-22T10:57:51.289Z,2.03
2018-09-22T11:00:25.588Z,1.97
2018-09-22T11:02:59.957Z,1.90
2018-09-22T11:05:34.664Z,2.00
2018-09-22T11:08:09.307Z,1.70
2018-09-22T11:10:44.124Z,2.27
2018-09-22T11:13:18.415Z,1.87
2018-09-22T11:15:53.120Z,2.10
2018-09-22T11:18:27.547Z,2.10
2018-09-22T11:21:01.998Z,1.93
2018-09-22T11:23:36.451Z,1.80
2018-09-22T11:26:10.849Z,1.97
2018-09-22T11:28:45.477Z,2.00
2018-09-22T11:31:21.097Z,2.10
2018-09-22T11:33:55.835Z,2.20
2018-09-22T11:36:32.320Z,2.10
2018-09-22T11:39:09.344Z,2.40
2018-09-22T11:41:44.281Z,2.17
2018-09-22T11:44:19.349Z,2.00
2018-09-22T11:46:54.048Z,2.20
2018-09-22T11:49:28.623Z,2.30
2018-09-22T11:52:04.088Z,2.13
2018-09-22T11:54:38.467Z,2.23
2018-09-22T11:57:13.208Z,2.20
2018-09-22T11:59:47.770Z,1.80
2018-09-22T12:02:22.434Z,2.17
2018-09-22T12:04:56.944Z,1.80
2018-09-22T12:07:31.635Z,2.30
2018-09-22T12:10:06.163Z,2.27
2018-09-22T12:12:40.744Z,2.10
2018-09-22T12:15:15.612Z,1.87
2018-09-22T12:17:50.203Z,2.23
2018-09-22T12:20:24.628Z,2.10
2018-09-22T12:23:00.141Z,1.80
2018-09-22T12:25:34.478Z,1.70
2018-09-22T12:28:10.276Z,2.13
2018-09-22T12:30:45.251Z,1.90
2018-09-22T12:33:19.549Z,2.00
2018-09-22T12:35:53.853Z,2.10
2018-09-22T12:38:28.134Z,2.13
2018-09-22T12:41:02.647Z,1.70
2018-09-22T12:43:37.594Z,1.80
2018-09-22T12:46:13.061Z,1.93
2018-09-22T12:48:47.871Z,1.87
2018-09-22T12:51:22.651Z,2.00
2018-09-22T12:53:57.283Z,1.90
2018-09-22T12:56:32.210Z,1.83
2018-09-22T12:59:06.929Z,1.87
2018-09-22T13:01:41.591Z,1.93
2018-09-22T13:04:17.423Z,1.70
2018-09-22T13:06:52.282Z,1.90
2018-09-22T13:09:26.789Z,1.80
2018-09-22T13:12:01.156Z,1.90
2018-09-22T13:14:35.809Z,1.90
2018-09-22T13:17:10.982Z,1.60
2018-09-22T13:19:45.389Z,1.90
2018-09-22T13:22:19.810Z,1.80
2018-09-22T13:24:54.611Z,1.90
2018-09-22T13:27:29.083Z,1.80
2018-09-22T13:30:03.771Z,2.30
2018-09-22T13:32:38.792Z,2.03
2018-09-22T13:35:13.282Z,1.90
2018-09-22T13:37:47.643Z,1.97
2018-09-22T13:40:22.700Z,2.20
2018-09-22T13:42:57.168Z,1.90
2018-09-22T13:45:31.627Z,2.03
2018-09-22T13:48:06.316Z,1.80
2018-09-22T13:50:40.935Z,1.87
2018-09-22T13:53:15.752Z,1.83
2018-09-22T13:55:50.947Z,1.90
2018-09-22T13:58:25.932Z,1.80
2018-09-22T14:01:00.311Z,1.90
2018-09-22T14:03:34.877Z,1.70
2018-09-22T14:06:09.930Z,1.87
2018-09-22T14:08:44.308Z,1.80
2018-09-22T14:11:18.716Z,1.93
2018-09-22T14:13:53.182Z,1.87
2018-09-22T14:16:27.887Z,1.90
2018-09-22T14:19:02.548Z,1.83
2018-09-22T14:21:36.944Z,1.77
2018-09-22T14:24:12.506Z,2.10
2018-09-22T14:26:47.559Z,1.70
2018-09-22T14:29:22.358Z,1.80
2018-09-22T14:31:57.224Z,2.73
2018-09-22T14:34:32.892Z,2.90
2018-09-22T14:37:08.349Z,1.90
2018-09-22T14:39:43.744Z,1.70
2018-09-22T14:42:18.321Z,2.13
2018-09-22T14:44:52.748Z,3.67
2018-09-22T14:47:27.151Z,1.70
2018-09-22T14:50:01.840Z,1.83
2018-09-22T14:52:36.499Z,1.80
2018-09-22T14:55:10.947Z,1.80
2018-09-22T14:57:45.513Z,1.70
2018-09-22T15:00:20.010Z,1.60
2018-09-22T15:02:54.751Z,1.53
2018-09-22T15:05:29.447Z,1.57
2018-09-22T15:08:04.505Z,1.57
2018-09-22T15:10:39.327Z,2.00
2018-09-22T15:13:13.684Z,1.57
2018-09-22T15:15:48.135Z,1.77
2018-09-22T15:18:22.619Z,1.70
2018-09-22T15:20:57.163Z,1.70
2018-09-22T15:23:31.844Z,2.00
2018-09-22T15:26:06.327Z,2.07
2018-09-22T15:28:40.695Z,1.67
2018-09-22T15:31:15.720Z,2.10
2018-09-22T15:33:50.589Z,1.90
2018-09-22T15:36:24.963Z,1.70
2018-09-22T15:38:59.338Z,1.80
2018-09-22T15:41:34.123Z,2.50
2018-09-22T15:44:08.460Z,2.73
2018-09-22T15:46:43.492Z,2.60
2018-09-22T15:49:17.788Z,2.20
2018-09-22T15:51:52.617Z,1.70
2018-09-22T15:54:27.879Z,2.10
2018-09-22T15:57:02.330Z,2.63
2018-09-22T15:59:37.043Z,3.60
2018-09-22T16:02:11.371Z,1.93
2018-09-22T16:04:45.896Z,3.03
2018-09-22T16:07:20.535Z,2.10
2018-09-22T16:09:54.964Z,1.90
2018-09-22T16:12:29.687Z,2.13
2018-09-22T16:15:04.004Z,2.43
2018-09-22T16:17:38.530Z,2.00
2018-09-22T16:20:13.447Z,2.10
2018-09-22T16:22:48.229Z,3.33
2018-09-22T16:25:22.637Z,2.90
2018-09-22T16:27:57.155Z,2.10
2018-09-22T16:30:32.083Z,2.13
2018-09-22T16:33:06.750Z,1.90
2018-09-22T16:35:41.174Z,2.53
2018-09-22T16:38:17.910Z,2.20
2018-09-22T16:40:52.744Z,2.40
2018-09-22T16:43:27.241Z,2.67
2018-09-22T16:46:02.016Z,3.17
2018-09-22T16:48:37.017Z,2.20
2018-09-22T16:51:26.887Z,2.17
2018-09-22T16:54:01.434Z,2.10
2018-09-22T16:56:36.083Z,2.60
2018-09-22T16:59:11.531Z,7.37
2018-09-22T17:01:45.923Z,11.93
2018-09-22T17:04:20.444Z,18.53
2018-09-22T17:06:55.358Z,12.30
2018-09-22T17:09:29.666Z,7.30
2018-09-22T17:12:04.937Z,6.97
2018-09-22T17:14:39.328Z,5.90
2018-09-22T17:17:14.088Z,3.20
2018-09-22T17:19:48.518Z,3.60
2018-09-22T17:22:23.271Z,3.27
2018-09-22T17:24:58.291Z,2.60
2018-09-22T17:27:33.379Z,2.50
2018-09-22T17:30:08.489Z,2.43
2018-09-22T17:32:43.316Z,2.50
2018-09-22T17:35:17.636Z,2.60
2018-09-22T17:37:52.360Z,2.43
2018-09-22T17:40:27.323Z,2.63
2018-09-22T17:43:01.947Z,2.37
2018-09-22T17:45:36.795Z,2.50
2018-09-22T17:48:11.210Z,2.80
2018-09-22T17:50:45.851Z,2.50
2018-09-22T17:53:20.471Z,2.50
2018-09-22T17:55:55.142Z,2.30
2018-09-22T17:58:30.235Z,2.30
2018-09-22T18:01:05.064Z,2.40
2018-09-22T18:03:39.653Z,2.23
2018-09-22T18:06:14.403Z,2.60
2018-09-22T18:08:48.823Z,2.50
2018-09-22T18:11:23.509Z,2.50
2018-09-22T18:13:57.911Z,2.30
2018-09-22T18:16:32.364Z,2.30
2018-09-22T18:19:07.196Z,2.80
2018-09-22T18:21:41.782Z,2.30
2018-09-22T18:24:17.183Z,2.50
2018-09-22T18:26:51.567Z,2.70
2018-09-22T18:29:27.336Z,2.50
2018-09-22T18:32:02.983Z,2.80
2018-09-22T18:34:37.469Z,2.90
2018-09-22T18:37:11.967Z,3.20
2018-09-22T18:39:46.748Z,5.13
2018-09-22T18:42:21.336Z,4.00
2018-09-22T18:44:56.088Z,3.03
2018-09-22T18:47:30.617Z,3.00
2018-09-22T18:50:05.449Z,3.00
2018-09-22T18:52:39.926Z,3.23
2018-09-22T18:55:14.531Z,3.70
2018-09-22T18:57:48.787Z,3.77
2018-09-22T19:00:23.048Z,3.10
2018-09-22T19:02:57.360Z,3.13
2018-09-22T19:05:32.003Z,3.00
2018-09-22T19:08:06.666Z,2.80
2018-09-22T19:10:41.408Z,3.80
2018-09-22T19:13:19.781Z,2.87
2018-09-22T19:15:57.675Z,2.80
2018-09-22T19:18:35.896Z,3.33
2018-09-22T19:21:20.336Z,3.33
2018-09-22T19:24:00.004Z,3.17
2018-09-22T19:26:41.716Z,3.40
2018-09-22T19:30:23.553Z,3.20
2018-09-22T19:33:02.019Z,3.70
2018-09-22T19:35:42.363Z,3.60
2018-09-22T19:39:21.268Z,3.50
2018-09-22T19:42:11.030Z,3.50
2018-09-22T19:45:51.552Z,3.30
2018-09-22T19:49:03.769Z,3.23
2018-09-22T19:51:48.417Z,3.07
2018-09-22T19:54:39.188Z,3.10
2018-09-22T19:57:13.636Z,2.90
2018-09-22T19:59:48.002Z,3.07
2018-09-22T20:02:22.964Z,3.47
2018-09-22T20:04:57.659Z,3.40
2018-09-22T20:07:40.111Z,3.20
2018-09-22T20:10:14.580Z,3.13
2018-09-22T20:12:49.963Z,3.03
2018-09-22T20:15:24.745Z,3.37
2018-09-22T20:17:59.372Z,2.90
2018-09-22T20:20:33.803Z,2.70
2018-09-22T20:23:09.344Z,2.70
2018-09-22T20:25:44.264Z,3.10
2018-09-22T20:28:18.874Z,2.60
2018-09-22T20:30:54.004Z,2.83
2018-09-22T20:33:28.429Z,2.80
2018-09-22T20:36:03.504Z,3.00
2018-09-22T20:38:38.311Z,2.53
2018-09-22T20:41:12.900Z,2.80
2018-09-22T20:43:47.423Z,2.90
2018-09-22T20:46:22.208Z,2.80
2018-09-22T20:48:57.276Z,2.67
2018-09-22T20:51:31.744Z,2.80
2018-09-22T20:54:07.068Z,3.27
2018-09-22T20:56:42.665Z,3.00
2018-09-22T20:59:17.059Z,2.77
2018-09-22T21:01:51.668Z,3.10
2018-09-22T21:04:26.324Z,3.20
2018-09-22T21:07:00.952Z,2.93
2018-09-22T21:09:35.935Z,2.80
2018-09-22T21:12:10.461Z,3.17
2018-09-22T21:14:44.869Z,2.97
2018-09-22T21:17:19.301Z,3.13
2018-09-22T21:20:16.968Z,2.80
2018-09-22T21:22:51.474Z,3.07
2018-09-22T21:25:26.328Z,2.97
2018-09-22T21:28:01.045Z,3.03
2018-09-22T21:30:35.881Z,3.10
2018-09-22T21:33:10.492Z,3.20
2018-09-22T21:35:50.943Z,2.93
2018-09-22T21:38:25.438Z,3.00
2018-09-22T21:41:11.788Z,2.83
2018-09-22T21:43:46.384Z,3.20
2018-09-22T21:46:21.188Z,3.00
2018-09-22T21:48:59.710Z,2.80
2018-09-22T21:51:34.153Z,3.10
2018-09-22T21:54:10.667Z,3.17
2018-09-22T21:56:45.304Z,2.80
2018-09-22T21:59:20.105Z,3.10
2018-09-22T22:01:54.719Z,2.90
2018-09-22T22:04:29.636Z,2.90
2018-09-22T22:07:04.537Z,2.83
2018-09-22T22:09:39.175Z,3.10
2018-09-22T22:12:13.764Z,3.33
2018-09-22T22:14:50.596Z,3.27
2018-09-22T22:17:24.982Z,3.33
2018-09-22T22:19:59.288Z,2.90
2018-09-22T22:22:33.795Z,3.17
2018-09-22T22:25:09.092Z,3.07
2018-09-22T22:27:43.524Z,2.60
2018-09-22T22:30:24.337Z,2.93
2018-09-22T22:32:58.863Z,2.87
2018-09-22T22:35:33.805Z,3.37
2018-09-22T22:38:08.219Z,2.90
2018-09-22T22:40:42.575Z,3.23
2018-09-22T22:43:17.576Z,3.20
2018-09-22T22:45:52.615Z,3.50
2018-09-22T22:48:27.423Z,3.50
2018-09-22T22:51:02.127Z,3.20
2018-09-22T22:53:36.571Z,3.30
2018-09-22T22:56:11.324Z,3.07
2018-09-22T22:58:46.115Z,3.10
2018-09-22T23:01:20.723Z,3.27
2018-09-22T23:03:55.012Z,2.97
2018-09-22T23:06:29.999Z,3.30
2018-09-22T23:09:05.796Z,3.10
2018-09-22T23:11:40.794Z,3.23
2018-09-22T23:14:15.558Z,3.10
2018-09-22T23:16:50.119Z,2.80
2018-09-22T23:19:24.855Z,3.13
2018-09-22T23:21:59.551Z,3.23
2018-09-22T23:24:33.839Z,3.37
2018-09-22T23:27:08.554Z,3.23
2018-09-22T23:29:43.246Z,2.90
2018-09-22T23:32:18.056Z,2.80
2018-09-22T23:34:53.236Z,2.67
2018-09-22T23:37:27.652Z,2.60
2018-09-22T23:40:02.158Z,2.60
2018-09-22T23:42:36.956Z,2.57
2018-09-22T23:45:11.743Z,2.70
2018-09-22T23:47:46.087Z,2.40
2018-09-22T23:50:20.839Z,2.63
2018-09-22T23:52:55.552Z,2.67
2018-09-22T23:55:30.712Z,2.60
2018-09-22T23:58:05.429Z,3.10
